Lafayette, Minnesota
Current Conditions -  °F | °C
As of 6:54 AM on Monday 22 Dec 2014 (Local Time) from KULM Reporting Station
Moderate Rain Moderate Rain  
Wind Chill: 31°   Ceiling: 500
Heat Index: 39°   Visibility: 3mi
Dew Point: 39°   Wind: 14mph
Humidity: 100%   Direction: 150°SSE
Pressure: 29.58"   Gusts: NA
Location:  44.45°N, 94.4°W
Report Text: KULM 221254Z AUTO 15012KT 3SM RA OVC005 04/04 A2958 RMK AO2 P0002
Loading
Personal Weather Stations






























Interactive Weather Map New forecast layout! Learn more

10-Day Weather Forecast

Advertisements
Track Severe Weather on mobile